sensor_id;sensor_type;location;lat;lon;timestamp;P1;durP1;ratioP1;P2;durP2;ratioP2
22184;SDS011;11258;52.516;13.318;2023-03-14T00:01:19;3.80;;;1.57;;
22184;SDS011;11258;52.516;13.318;2023-03-14T00:03:45;3.17;;;1.07;;
22184;SDS011;11258;52.516;13.318;2023-03-14T00:06:12;1.10;;;0.80;;
22184;SDS011;11258;52.516;13.318;2023-03-14T00:08:39;1.70;;;1.00;;
22184;SDS011;11258;52.516;13.318;2023-03-14T00:11:06;2.10;;;1.00;;
22184;SDS011;11258;52.516;13.318;2023-03-14T00:13:39;3.20;;;1.10;;
22184;SDS011;11258;52.516;13.318;2023-03-14T00:16:06;1.10;;;0.90;;
22184;SDS011;11258;52.516;13.318;2023-03-14T00:18:33;2.10;;;1.20;;
22184;SDS011;11258;52.516;13.318;2023-03-14T00:21:00;1.00;;;0.87;;
22184;SDS011;11258;52.516;13.318;2023-03-14T00:23:27;2.00;;;0.80;;
22184;SDS011;11258;52.516;13.318;2023-03-14T00:26:01;2.77;;;1.23;;
22184;SDS011;11258;52.516;13.318;2023-03-14T00:28:31;1.97;;;0.97;;
22184;SDS011;11258;52.516;13.318;2023-03-14T00:30:57;3.87;;;1.00;;
22184;SDS011;11258;52.516;13.318;2023-03-14T00:33:23;1.17;;;1.03;;
22184;SDS011;11258;52.516;13.318;2023-03-14T00:36:22;2.20;;;1.30;;
22184;SDS011;11258;52.516;13.318;2023-03-14T00:38:42;1.30;;;0.90;;
22184;SDS011;11258;52.516;13.318;2023-03-14T00:41:13;2.60;;;1.10;;
22184;SDS011;11258;52.516;13.318;2023-03-14T00:43:40;0.97;;;0.77;;
22184;SDS011;11258;52.516;13.318;2023-03-14T00:46:06;2.27;;;1.00;;
22184;SDS011;11258;52.516;13.318;2023-03-14T00:48:32;1.13;;;0.80;;
22184;SDS011;11258;52.516;13.318;2023-03-14T00:50:59;1.97;;;1.00;;
22184;SDS011;11258;52.516;13.318;2023-03-14T00:53:25;2.20;;;1.00;;
22184;SDS011;11258;52.516;13.318;2023-03-14T00:55:50;1.43;;;1.03;;
22184;SDS011;11258;52.516;13.318;2023-03-14T00:58:16;5.03;;;1.63;;
22184;SDS011;11258;52.516;13.318;2023-03-14T01:00:43;2.13;;;1.27;;
22184;SDS011;11258;52.516;13.318;2023-03-14T01:03:09;1.17;;;1.07;;
22184;SDS011;11258;52.516;13.318;2023-03-14T01:05:37;1.87;;;1.07;;
22184;SDS011;11258;52.516;13.318;2023-03-14T01:08:03;1.93;;;1.20;;
22184;SDS011;11258;52.516;13.318;2023-03-14T01:10:30;2.57;;;1.00;;
22184;SDS011;11258;52.516;13.318;2023-03-14T01:12:55;1.00;;;0.80;;
22184;SDS011;11258;52.516;13.318;2023-03-14T01:15:21;1.50;;;1.00;;
22184;SDS011;11258;52.516;13.318;2023-03-14T01:17:47;2.10;;;1.17;;
22184;SDS011;11258;52.516;13.318;2023-03-14T01:20:13;1.57;;;0.83;;
22184;SDS011;11258;52.516;13.318;2023-03-14T01:22:40;3.03;;;1.27;;
22184;SDS011;11258;52.516;13.318;2023-03-14T01:25:07;2.50;;;1.20;;
22184;SDS011;11258;52.516;13.318;2023-03-14T01:27:38;1.20;;;1.00;;
22184;SDS011;11258;52.516;13.318;2023-03-14T01:30:04;1.30;;;0.90;;
22184;SDS011;11258;52.516;13.318;2023-03-14T01:32:30;2.03;;;1.30;;
22184;SDS011;11258;52.516;13.318;2023-03-14T01:34:56;1.17;;;0.90;;
22184;SDS011;11258;52.516;13.318;2023-03-14T01:37:22;1.60;;;1.10;;
22184;SDS011;11258;52.516;13.318;2023-03-14T01:39:47;2.50;;;0.90;;
22184;SDS011;11258;52.516;13.318;2023-03-14T01:42:13;1.20;;;0.90;;
22184;SDS011;11258;52.516;13.318;2023-03-14T01:47:07;1.10;;;1.00;;
22184;SDS011;11258;52.516;13.318;2023-03-14T01:49:33;1.67;;;1.40;;
22184;SDS011;11258;52.516;13.318;2023-03-14T01:52:05;2.00;;;1.00;;
22184;SDS011;11258;52.516;13.318;2023-03-14T01:54:39;2.30;;;1.00;;
22184;SDS011;11258;52.516;13.318;2023-03-14T01:57:12;0.97;;;0.70;;
22184;SDS011;11258;52.516;13.318;2023-03-14T01:59:43;1.30;;;1.00;;
22184;SDS011;11258;52.516;13.318;2023-03-14T02:02:15;1.60;;;1.00;;
22184;SDS011;11258;52.516;13.318;2023-03-14T02:04:41;1.40;;;0.97;;
22184;SDS011;11258;52.516;13.318;2023-03-14T02:09:47;2.43;;;1.00;;
22184;SDS011;11258;52.516;13.318;2023-03-14T02:12:15;2.10;;;1.03;;
22184;SDS011;11258;52.516;13.318;2023-03-14T02:14:42;1.17;;;0.93;;
22184;SDS011;11258;52.516;13.318;2023-03-14T02:17:13;0.90;;;0.70;;
22184;SDS011;11258;52.516;13.318;2023-03-14T02:22:14;1.13;;;0.80;;
22184;SDS011;11258;52.516;13.318;2023-03-14T02:24:43;1.57;;;0.90;;
22184;SDS011;11258;52.516;13.318;2023-03-14T02:27:30;2.90;;;0.80;;
22184;SDS011;11258;52.516;13.318;2023-03-14T02:29:57;1.83;;;1.20;;
22184;SDS011;11258;52.516;13.318;2023-03-14T02:32:26;1.33;;;0.87;;
22184;SDS011;11258;52.516;13.318;2023-03-14T02:34:56;1.87;;;1.17;;
22184;SDS011;11258;52.516;13.318;2023-03-14T02:37:35;0.70;;;0.70;;
22184;SDS011;11258;52.516;13.318;2023-03-14T02:40:13;2.20;;;0.83;;
22184;SDS011;11258;52.516;13.318;2023-03-14T02:42:39;1.17;;;0.80;;
22184;SDS011;11258;52.516;13.318;2023-03-14T02:47:33;1.23;;;0.80;;
22184;SDS011;11258;52.516;13.318;2023-03-14T02:50:02;1.93;;;1.00;;
22184;SDS011;11258;52.516;13.318;2023-03-14T02:52:33;1.60;;;0.80;;
22184;SDS011;11258;52.516;13.318;2023-03-14T02:54:58;1.97;;;0.90;;
22184;SDS011;11258;52.516;13.318;2023-03-14T02:57:24;2.80;;;1.03;;
22184;SDS011;11258;52.516;13.318;2023-03-14T02:59:50;1.20;;;1.00;;
22184;SDS011;11258;52.516;13.318;2023-03-14T03:02:16;2.30;;;0.70;;
22184;SDS011;11258;52.516;13.318;2023-03-14T03:04:41;1.00;;;0.60;;
22184;SDS011;11258;52.516;13.318;2023-03-14T03:07:07;3.37;;;0.90;;
22184;SDS011;11258;52.516;13.318;2023-03-14T03:09:33;1.83;;;1.00;;
22184;SDS011;11258;52.516;13.318;2023-03-14T03:11:58;1.03;;;0.70;;
22184;SDS011;11258;52.516;13.318;2023-03-14T03:14:24;0.90;;;0.70;;
22184;SDS011;11258;52.516;13.318;2023-03-14T03:16:50;1.20;;;0.90;;
22184;SDS011;11258;52.516;13.318;2023-03-14T03:19:15;0.77;;;0.70;;
22184;SDS011;11258;52.516;13.318;2023-03-14T03:21:42;1.40;;;0.93;;
22184;SDS011;11258;52.516;13.318;2023-03-14T03:24:08;2.60;;;0.95;;
22184;SDS011;11258;52.516;13.318;2023-03-14T03:26:34;1.40;;;1.00;;
22184;SDS011;11258;52.516;13.318;2023-03-14T03:29:01;0.73;;;0.60;;
22184;SDS011;11258;52.516;13.318;2023-03-14T03:31:27;2.17;;;0.83;;
22184;SDS011;11258;52.516;13.318;2023-03-14T03:33:53;1.63;;;1.10;;
22184;SDS011;11258;52.516;13.318;2023-03-14T03:36:22;2.73;;;0.80;;
22184;SDS011;11258;52.516;13.318;2023-03-14T03:38:49;2.00;;;0.90;;
22184;SDS011;11258;52.516;13.318;2023-03-14T03:41:15;2.20;;;0.80;;
22184;SDS011;11258;52.516;13.318;2023-03-14T03:43:40;0.77;;;0.73;;
22184;SDS011;11258;52.516;13.318;2023-03-14T03:46:06;1.73;;;0.77;;
22184;SDS011;11258;52.516;13.318;2023-03-14T03:48:33;2.03;;;0.93;;
22184;SDS011;11258;52.516;13.318;2023-03-14T03:50:59;1.87;;;0.80;;
22184;SDS011;11258;52.516;13.318;2023-03-14T03:53:25;2.70;;;0.80;;
22184;SDS011;11258;52.516;13.318;2023-03-14T03:55:51;0.80;;;0.67;;
22184;SDS011;11258;52.516;13.318;2023-03-14T03:58:16;0.67;;;0.60;;
22184;SDS011;11258;52.516;13.318;2023-03-14T04:00:42;0.77;;;0.73;;
22184;SDS011;11258;52.516;13.318;2023-03-14T04:03:08;3.50;;;1.53;;
22184;SDS011;11258;52.516;13.318;2023-03-14T04:05:33;1.07;;;0.83;;
22184;SDS011;11258;52.516;13.318;2023-03-14T04:07:59;0.80;;;0.60;;
22184;SDS011;11258;52.516;13.318;2023-03-14T04:10:26;1.50;;;0.77;;
22184;SDS011;11258;52.516;13.318;2023-03-14T04:12:51;0.63;;;0.60;;
22184;SDS011;11258;52.516;13.318;2023-03-14T04:15:17;1.20;;;0.80;;
22184;SDS011;11258;52.516;13.318;2023-03-14T04:17:43;2.30;;;0.67;;
22184;SDS011;11258;52.516;13.318;2023-03-14T04:20:09;0.97;;;0.70;;
22184;SDS011;11258;52.516;13.318;2023-03-14T04:22:38;1.37;;;0.77;;
22184;SDS011;11258;52.516;13.318;2023-03-14T04:25:04;1.40;;;0.90;;
22184;SDS011;11258;52.516;13.318;2023-03-14T04:27:31;1.00;;;0.87;;
22184;SDS011;11258;52.516;13.318;2023-03-14T04:29:57;1.00;;;0.70;;
22184;SDS011;11258;52.516;13.318;2023-03-14T04:32:23;3.40;;;0.90;;
22184;SDS011;11258;52.516;13.318;2023-03-14T04:34:48;1.77;;;0.90;;
22184;SDS011;11258;52.516;13.318;2023-03-14T04:37:14;2.40;;;0.60;;
22184;SDS011;11258;52.516;13.318;2023-03-14T04:39:40;0.73;;;0.67;;
22184;SDS011;11258;52.516;13.318;2023-03-14T04:42:05;1.47;;;0.80;;
22184;SDS011;11258;52.516;13.318;2023-03-14T04:44:31;1.10;;;0.67;;
22184;SDS011;11258;52.516;13.318;2023-03-14T04:46:57;0.77;;;0.70;;
22184;SDS011;11258;52.516;13.318;2023-03-14T04:49:22;1.83;;;0.73;;
22184;SDS011;11258;52.516;13.318;2023-03-14T04:51:48;0.93;;;0.60;;
22184;SDS011;11258;52.516;13.318;2023-03-14T04:54:16;2.03;;;0.87;;
22184;SDS011;11258;52.516;13.318;2023-03-14T04:56:42;2.97;;;0.77;;
22184;SDS011;11258;52.516;13.318;2023-03-14T04:59:08;1.20;;;0.80;;
22184;SDS011;11258;52.516;13.318;2023-03-14T05:01:34;1.07;;;0.70;;
22184;SDS011;11258;52.516;13.318;2023-03-14T05:04:00;1.27;;;0.77;;
22184;SDS011;11258;52.516;13.318;2023-03-14T05:06:25;0.90;;;0.80;;
22184;SDS011;11258;52.516;13.318;2023-03-14T05:08:51;1.40;;;1.10;;
22184;SDS011;11258;52.516;13.318;2023-03-14T05:11:17;2.00;;;0.83;;
22184;SDS011;11258;52.516;13.318;2023-03-14T05:13:43;2.33;;;0.97;;
22184;SDS011;11258;52.516;13.318;2023-03-14T05:16:09;3.13;;;0.90;;
22184;SDS011;11258;52.516;13.318;2023-03-14T05:18:36;2.30;;;0.97;;
22184;SDS011;11258;52.516;13.318;2023-03-14T05:21:02;1.10;;;0.90;;
22184;SDS011;11258;52.516;13.318;2023-03-14T05:23:29;2.00;;;0.93;;
22184;SDS011;11258;52.516;13.318;2023-03-14T05:25:55;3.43;;;1.10;;
22184;SDS011;11258;52.516;13.318;2023-03-14T05:28:20;1.67;;;0.90;;
22184;SDS011;11258;52.516;13.318;2023-03-14T05:30:46;1.10;;;0.90;;
22184;SDS011;11258;52.516;13.318;2023-03-14T05:33:12;0.90;;;0.67;;
22184;SDS011;11258;52.516;13.318;2023-03-14T05:35:37;1.40;;;1.23;;
22184;SDS011;11258;52.516;13.318;2023-03-14T05:38:03;1.03;;;0.80;;
22184;SDS011;11258;52.516;13.318;2023-03-14T05:40:29;1.33;;;1.03;;
22184;SDS011;11258;52.516;13.318;2023-03-14T05:42:54;3.47;;;1.00;;
22184;SDS011;11258;52.516;13.318;2023-03-14T05:45:20;1.27;;;0.70;;
22184;SDS011;11258;52.516;13.318;2023-03-14T05:47:46;2.13;;;1.10;;
22184;SDS011;11258;52.516;13.318;2023-03-14T05:50:12;1.13;;;0.70;;
22184;SDS011;11258;52.516;13.318;2023-03-14T05:52:37;1.37;;;0.87;;
22184;SDS011;11258;52.516;13.318;2023-03-14T05:55:03;2.57;;;1.00;;
22184;SDS011;11258;52.516;13.318;2023-03-14T05:57:29;2.20;;;0.90;;
22184;SDS011;11258;52.516;13.318;2023-03-14T05:59:55;1.60;;;1.37;;
22184;SDS011;11258;52.516;13.318;2023-03-14T06:02:20;4.37;;;1.20;;
22184;SDS011;11258;52.516;13.318;2023-03-14T06:04:46;3.80;;;1.03;;
22184;SDS011;11258;52.516;13.318;2023-03-14T06:07:12;3.77;;;1.40;;
22184;SDS011;11258;52.516;13.318;2023-03-14T06:09:37;2.63;;;1.23;;
22184;SDS011;11258;52.516;13.318;2023-03-14T06:12:04;5.87;;;1.10;;
22184;SDS011;11258;52.516;13.318;2023-03-14T06:14:30;3.43;;;0.87;;
22184;SDS011;11258;52.516;13.318;2023-03-14T06:16:56;2.40;;;1.10;;
22184;SDS011;11258;52.516;13.318;2023-03-14T06:19:23;2.70;;;1.10;;
22184;SDS011;11258;52.516;13.318;2023-03-14T06:21:50;2.33;;;1.10;;
22184;SDS011;11258;52.516;13.318;2023-03-14T06:24:15;2.60;;;1.00;;
22184;SDS011;11258;52.516;13.318;2023-03-14T06:26:41;3.27;;;1.10;;
22184;SDS011;11258;52.516;13.318;2023-03-14T06:29:07;2.90;;;1.00;;
22184;SDS011;11258;52.516;13.318;2023-03-14T06:31:32;2.63;;;1.20;;
22184;SDS011;11258;52.516;13.318;2023-03-14T06:33:58;1.83;;;1.20;;
22184;SDS011;11258;52.516;13.318;2023-03-14T06:36:24;2.10;;;1.17;;
22184;SDS011;11258;52.516;13.318;2023-03-14T06:38:50;3.87;;;1.20;;
22184;SDS011;11258;52.516;13.318;2023-03-14T06:41:15;2.30;;;1.17;;
22184;SDS011;11258;52.516;13.318;2023-03-14T06:43:41;4.07;;;1.43;;
22184;SDS011;11258;52.516;13.318;2023-03-14T06:46:07;2.37;;;1.30;;
22184;SDS011;11258;52.516;13.318;2023-03-14T06:48:33;3.77;;;2.03;;
22184;SDS011;11258;52.516;13.318;2023-03-14T06:50:58;2.93;;;1.20;;
22184;SDS011;11258;52.516;13.318;2023-03-14T06:53:24;6.10;;;1.50;;
22184;SDS011;11258;52.516;13.318;2023-03-14T06:55:50;1.87;;;1.10;;
22184;SDS011;11258;52.516;13.318;2023-03-14T06:58:16;3.10;;;1.10;;
22184;SDS011;11258;52.516;13.318;2023-03-14T07:00:41;2.22;;;1.45;;
22184;SDS011;11258;52.516;13.318;2023-03-14T07:03:07;2.90;;;0.93;;
22184;SDS011;11258;52.516;13.318;2023-03-14T07:05:33;2.72;;;1.10;;
22184;SDS011;11258;52.516;13.318;2023-03-14T07:08:00;4.38;;;1.40;;
22184;SDS011;11258;52.516;13.318;2023-03-14T07:10:25;3.10;;;1.27;;
22184;SDS011;11258;52.516;13.318;2023-03-14T07:12:51;2.00;;;1.20;;
22184;SDS011;11258;52.516;13.318;2023-03-14T07:15:17;3.13;;;1.13;;
22184;SDS011;11258;52.516;13.318;2023-03-14T07:17:43;3.03;;;1.42;;
22184;SDS011;11258;52.516;13.318;2023-03-14T07:20:09;5.97;;;1.80;;
22184;SDS011;11258;52.516;13.318;2023-03-14T07:22:35;2.58;;;1.25;;
22184;SDS011;11258;52.516;13.318;2023-03-14T07:25:00;2.42;;;1.17;;
22184;SDS011;11258;52.516;13.318;2023-03-14T07:27:26;2.40;;;1.08;;
22184;SDS011;11258;52.516;13.318;2023-03-14T07:29:52;9.52;;;1.52;;
22184;SDS011;11258;52.516;13.318;2023-03-14T07:32:17;4.05;;;1.35;;
22184;SDS011;11258;52.516;13.318;2023-03-14T07:34:43;4.50;;;1.23;;
22184;SDS011;11258;52.516;13.318;2023-03-14T07:37:09;7.68;;;1.40;;
22184;SDS011;11258;52.516;13.318;2023-03-14T07:39:35;4.05;;;1.05;;
22184;SDS011;11258;52.516;13.318;2023-03-14T07:42:01;4.95;;;1.40;;
22184;SDS011;11258;52.516;13.318;2023-03-14T07:44:27;4.70;;;1.25;;
22184;SDS011;11258;52.516;13.318;2023-03-14T07:46:52;3.50;;;1.15;;
22184;SDS011;11258;52.516;13.318;2023-03-14T07:49:18;4.00;;;0.95;;
22184;SDS011;11258;52.516;13.318;2023-03-14T07:51:43;5.43;;;1.30;;
22184;SDS011;11258;52.516;13.318;2023-03-14T07:54:12;4.60;;;1.30;;
22184;SDS011;11258;52.516;13.318;2023-03-14T07:56:38;3.28;;;1.42;;
22184;SDS011;11258;52.516;13.318;2023-03-14T07:59:03;2.05;;;1.40;;
22184;SDS011;11258;52.516;13.318;2023-03-14T08:01:29;3.60;;;1.55;;
22184;SDS011;11258;52.516;13.318;2023-03-14T08:03:55;4.05;;;1.38;;
22184;SDS011;11258;52.516;13.318;2023-03-14T08:06:20;8.05;;;3.05;;
22184;SDS011;11258;52.516;13.318;2023-03-14T08:08:46;5.10;;;1.90;;
22184;SDS011;11258;52.516;13.318;2023-03-14T08:11:12;5.10;;;1.35;;
22184;SDS011;11258;52.516;13.318;2023-03-14T08:13:37;1.80;;;1.10;;
22184;SDS011;11258;52.516;13.318;2023-03-14T08:16:04;5.20;;;1.20;;
22184;SDS011;11258;52.516;13.318;2023-03-14T08:18:30;4.35;;;1.20;;
22184;SDS011;11258;52.516;13.318;2023-03-14T08:20:56;3.50;;;1.35;;
22184;SDS011;11258;52.516;13.318;2023-03-14T08:23:21;4.85;;;1.42;;
22184;SDS011;11258;52.516;13.318;2023-03-14T08:25:51;6.68;;;1.20;;
22184;SDS011;11258;52.516;13.318;2023-03-14T08:28:17;5.80;;;1.52;;
22184;SDS011;11258;52.516;13.318;2023-03-14T08:30:43;3.17;;;1.65;;
22184;SDS011;11258;52.516;13.318;2023-03-14T08:33:09;3.20;;;1.17;;
22184;SDS011;11258;52.516;13.318;2023-03-14T08:35:34;3.80;;;1.35;;
22184;SDS011;11258;52.516;13.318;2023-03-14T08:38:01;3.28;;;1.40;;
22184;SDS011;11258;52.516;13.318;2023-03-14T08:40:27;3.83;;;1.52;;
22184;SDS011;11258;52.516;13.318;2023-03-14T08:42:53;2.83;;;1.33;;
22184;SDS011;11258;52.516;13.318;2023-03-14T08:45:18;6.85;;;1.42;;
22184;SDS011;11258;52.516;13.318;2023-03-14T08:47:44;4.20;;;1.83;;
22184;SDS011;11258;52.516;13.318;2023-03-14T08:50:10;3.92;;;1.55;;
22184;SDS011;11258;52.516;13.318;2023-03-14T08:52:37;2.67;;;1.20;;
22184;SDS011;11258;52.516;13.318;2023-03-14T08:55:05;2.78;;;1.55;;
22184;SDS011;11258;52.516;13.318;2023-03-14T08:57:32;3.75;;;1.30;;
22184;SDS011;11258;52.516;13.318;2023-03-14T08:59:57;5.43;;;1.60;;
22184;SDS011;11258;52.516;13.318;2023-03-14T09:02:23;5.35;;;1.40;;
22184;SDS011;11258;52.516;13.318;2023-03-14T09:04:50;4.57;;;1.63;;
22184;SDS011;11258;52.516;13.318;2023-03-14T09:07:16;5.60;;;1.23;;
22184;SDS011;11258;52.516;13.318;2023-03-14T09:09:42;3.42;;;1.20;;
22184;SDS011;11258;52.516;13.318;2023-03-14T09:12:08;5.45;;;1.20;;
22184;SDS011;11258;52.516;13.318;2023-03-14T09:14:34;2.17;;;1.00;;
22184;SDS011;11258;52.516;13.318;2023-03-14T09:16:59;3.33;;;0.90;;
22184;SDS011;11258;52.516;13.318;2023-03-14T09:19:25;5.85;;;1.27;;
22184;SDS011;11258;52.516;13.318;2023-03-14T09:21:51;4.43;;;1.30;;
22184;SDS011;11258;52.516;13.318;2023-03-14T09:24:17;3.30;;;1.40;;
22184;SDS011;11258;52.516;13.318;2023-03-14T09:26:42;4.72;;;1.35;;
22184;SDS011;11258;52.516;13.318;2023-03-14T09:29:08;4.40;;;1.23;;
22184;SDS011;11258;52.516;13.318;2023-03-14T09:31:34;5.53;;;1.30;;
22184;SDS011;11258;52.516;13.318;2023-03-14T09:34:00;6.25;;;1.23;;
22184;SDS011;11258;52.516;13.318;2023-03-14T09:36:26;4.22;;;1.20;;
22184;SDS011;11258;52.516;13.318;2023-03-14T09:38:51;2.80;;;1.02;;
22184;SDS011;11258;52.516;13.318;2023-03-14T09:41:18;2.75;;;1.10;;
22184;SDS011;11258;52.516;13.318;2023-03-14T09:44:39;3.22;;;1.30;;
22184;SDS011;11258;52.516;13.318;2023-03-14T09:47:00;2.90;;;1.67;;
22184;SDS011;11258;52.516;13.318;2023-03-14T09:49:32;7.75;;;4.00;;
22184;SDS011;11258;52.516;13.318;2023-03-14T09:52:00;6.38;;;3.28;;
22184;SDS011;11258;52.516;13.318;2023-03-14T09:54:37;5.50;;;1.92;;
22184;SDS011;11258;52.516;13.318;2023-03-14T09:57:09;4.25;;;1.38;;
22184;SDS011;11258;52.516;13.318;2023-03-14T09:59:38;4.28;;;1.13;;
22184;SDS011;11258;52.516;13.318;2023-03-14T10:02:20;6.22;;;2.63;;
22184;SDS011;11258;52.516;13.318;2023-03-14T10:04:47;3.63;;;1.17;;
22184;SDS011;11258;52.516;13.318;2023-03-14T10:07:16;5.53;;;1.85;;
22184;SDS011;11258;52.516;13.318;2023-03-14T10:09:48;6.82;;;1.52;;
22184;SDS011;11258;52.516;13.318;2023-03-14T10:12:15;6.20;;;1.42;;
22184;SDS011;11258;52.516;13.318;2023-03-14T10:14:50;3.20;;;1.20;;
22184;SDS011;11258;52.516;13.318;2023-03-14T10:17:19;3.00;;;1.55;;
22184;SDS011;11258;52.516;13.318;2023-03-14T10:19:58;4.75;;;1.17;;
22184;SDS011;11258;52.516;13.318;2023-03-14T10:22:26;4.03;;;1.15;;
22184;SDS011;11258;52.516;13.318;2023-03-14T10:24:56;5.82;;;1.23;;
22184;SDS011;11258;52.516;13.318;2023-03-14T10:27:28;3.22;;;1.10;;
22184;SDS011;11258;52.516;13.318;2023-03-14T10:30:00;2.22;;;1.30;;
22184;SDS011;11258;52.516;13.318;2023-03-14T10:32:38;3.70;;;1.13;;
22184;SDS011;11258;52.516;13.318;2023-03-14T10:37:47;3.60;;;0.88;;
22184;SDS011;11258;52.516;13.318;2023-03-14T10:40:28;2.90;;;0.88;;
22184;SDS011;11258;52.516;13.318;2023-03-14T10:42:59;4.22;;;1.52;;
22184;SDS011;11258;52.516;13.318;2023-03-14T10:45:30;2.95;;;1.10;;
22184;SDS011;11258;52.516;13.318;2023-03-14T10:48:06;4.90;;;0.98;;
22184;SDS011;11258;52.516;13.318;2023-03-14T10:50:49;2.70;;;1.17;;
22184;SDS011;11258;52.516;13.318;2023-03-14T10:53:19;2.63;;;1.10;;
22184;SDS011;11258;52.516;13.318;2023-03-14T10:55:45;4.18;;;1.20;;
22184;SDS011;11258;52.516;13.318;2023-03-14T10:58:21;2.92;;;1.10;;
22184;SDS011;11258;52.516;13.318;2023-03-14T11:00:56;4.68;;;0.90;;
22184;SDS011;11258;52.516;13.318;2023-03-14T11:03:28;3.00;;;0.85;;
22184;SDS011;11258;52.516;13.318;2023-03-14T11:13:53;2.90;;;1.20;;
22184;SDS011;11258;52.516;13.318;2023-03-14T11:16:48;2.92;;;1.33;;
22184;SDS011;11258;52.516;13.318;2023-03-14T11:19:32;2.83;;;0.93;;
22184;SDS011;11258;52.516;13.318;2023-03-14T11:22:06;1.63;;;0.80;;
22184;SDS011;11258;52.516;13.318;2023-03-14T11:24:55;2.85;;;0.98;;
22184;SDS011;11258;52.516;13.318;2023-03-14T11:33:14;2.60;;;1.05;;
22184;SDS011;11258;52.516;13.318;2023-03-14T11:36:03;1.90;;;0.80;;
22184;SDS011;11258;52.516;13.318;2023-03-14T11:41:19;2.08;;;0.80;;
22184;SDS011;11258;52.516;13.318;2023-03-14T11:43:51;1.38;;;0.70;;
22184;SDS011;11258;52.516;13.318;2023-03-14T11:46:36;2.80;;;0.98;;
22184;SDS011;11258;52.516;13.318;2023-03-14T11:51:43;1.35;;;0.68;;
22184;SDS011;11258;52.516;13.318;2023-03-14T11:56:39;2.95;;;0.80;;
22184;SDS011;11258;52.516;13.318;2023-03-14T11:59:21;0.88;;;0.68;;
22184;SDS011;11258;52.516;13.318;2023-03-14T12:01:57;2.42;;;0.60;;
22184;SDS011;11258;52.516;13.318;2023-03-14T12:04:54;2.22;;;1.00;;
22184;SDS011;11258;52.516;13.318;2023-03-14T12:10:12;0.75;;;0.60;;
22184;SDS011;11258;52.516;13.318;2023-03-14T12:12:38;2.05;;;0.90;;
22184;SDS011;11258;52.516;13.318;2023-03-14T12:15:04;2.17;;;0.95;;
22184;SDS011;11258;52.516;13.318;2023-03-14T12:17:40;1.83;;;1.08;;
22184;SDS011;11258;52.516;13.318;2023-03-14T12:22:42;2.30;;;0.80;;
22184;SDS011;11258;52.516;13.318;2023-03-14T12:25:15;2.10;;;1.00;;
22184;SDS011;11258;52.516;13.318;2023-03-14T12:35:42;4.30;;;1.67;;
22184;SDS011;11258;52.516;13.318;2023-03-14T12:38:13;1.17;;;0.82;;
22184;SDS011;11258;52.516;13.318;2023-03-14T12:41:26;3.30;;;1.27;;
22184;SDS011;11258;52.516;13.318;2023-03-14T12:43:35;4.32;;;0.90;;
22184;SDS011;11258;52.516;13.318;2023-03-14T12:48:46;2.50;;;1.30;;
22184;SDS011;11258;52.516;13.318;2023-03-14T12:51:18;3.60;;;1.00;;
22184;SDS011;11258;52.516;13.318;2023-03-14T12:56:22;3.55;;;0.90;;
22184;SDS011;11258;52.516;13.318;2023-03-14T13:01:53;2.58;;;1.10;;
22184;SDS011;11258;52.516;13.318;2023-03-14T13:04:35;1.42;;;0.80;;
22184;SDS011;11258;52.516;13.318;2023-03-14T13:07:13;2.42;;;0.88;;
22184;SDS011;11258;52.516;13.318;2023-03-14T13:12:37;0.88;;;0.50;;
22184;SDS011;11258;52.516;13.318;2023-03-14T13:15:31;1.35;;;0.70;;
22184;SDS011;11258;52.516;13.318;2023-03-14T13:18:10;1.00;;;0.70;;
22184;SDS011;11258;52.516;13.318;2023-03-14T13:20:50;1.38;;;0.52;;
22184;SDS011;11258;52.516;13.318;2023-03-14T13:23:22;2.70;;;0.98;;
22184;SDS011;11258;52.516;13.318;2023-03-14T13:25:52;2.33;;;0.80;;
22184;SDS011;11258;52.516;13.318;2023-03-14T13:28:18;1.15;;;1.00;;
22184;SDS011;11258;52.516;13.318;2023-03-14T13:30:45;4.40;;;1.10;;
22184;SDS011;11258;52.516;13.318;2023-03-14T13:33:13;2.65;;;1.10;;
22184;SDS011;11258;52.516;13.318;2023-03-14T13:35:48;1.38;;;0.82;;
22184;SDS011;11258;52.516;13.318;2023-03-14T13:38:21;2.33;;;0.60;;
22184;SDS011;11258;52.516;13.318;2023-03-14T13:40:49;1.77;;;0.77;;
22184;SDS011;11258;52.516;13.318;2023-03-14T13:45:49;1.98;;;0.90;;
22184;SDS011;11258;52.516;13.318;2023-03-14T13:48:16;1.38;;;0.73;;
22184;SDS011;11258;52.516;13.318;2023-03-14T13:50:48;2.90;;;0.90;;
22184;SDS011;11258;52.516;13.318;2023-03-14T13:53:17;2.47;;;0.90;;
22184;SDS011;11258;52.516;13.318;2023-03-14T13:55:43;1.75;;;1.10;;
22184;SDS011;11258;52.516;13.318;2023-03-14T13:58:13;3.72;;;0.82;;
22184;SDS011;11258;52.516;13.318;2023-03-14T14:01:02;1.00;;;0.77;;
22184;SDS011;11258;52.516;13.318;2023-03-14T14:03:38;2.35;;;0.85;;
22184;SDS011;11258;52.516;13.318;2023-03-14T14:06:07;2.15;;;0.70;;
22184;SDS011;11258;52.516;13.318;2023-03-14T14:08:56;1.80;;;0.68;;
22184;SDS011;11258;52.516;13.318;2023-03-14T14:11:44;1.92;;;1.00;;
22184;SDS011;11258;52.516;13.318;2023-03-14T14:14:37;0.98;;;0.70;;
22184;SDS011;11258;52.516;13.318;2023-03-14T14:17:11;1.42;;;0.70;;
22184;SDS011;11258;52.516;13.318;2023-03-14T14:19:40;1.67;;;0.68;;
22184;SDS011;11258;52.516;13.318;2023-03-14T14:22:08;0.82;;;0.40;;
22184;SDS011;11258;52.516;13.318;2023-03-14T14:24:35;1.30;;;0.60;;
22184;SDS011;11258;52.516;13.318;2023-03-14T14:27:08;2.67;;;0.60;;
22184;SDS011;11258;52.516;13.318;2023-03-14T14:29:56;1.90;;;0.80;;
22184;SDS011;11258;52.516;13.318;2023-03-14T14:32:23;1.35;;;0.60;;
22184;SDS011;11258;52.516;13.318;2023-03-14T14:37:23;2.17;;;0.70;;
22184;SDS011;11258;52.516;13.318;2023-03-14T14:39:52;0.98;;;0.77;;
22184;SDS011;11258;52.516;13.318;2023-03-14T14:42:20;2.30;;;0.60;;
22184;SDS011;11258;52.516;13.318;2023-03-14T14:44:49;2.97;;;1.27;;
22184;SDS011;11258;52.516;13.318;2023-03-14T14:47:20;1.92;;;0.68;;
22184;SDS011;11258;52.516;13.318;2023-03-14T14:49:48;1.40;;;0.80;;
22184;SDS011;11258;52.516;13.318;2023-03-14T14:52:19;2.05;;;0.90;;
22184;SDS011;11258;52.516;13.318;2023-03-14T14:54:48;1.77;;;0.70;;
22184;SDS011;11258;52.516;13.318;2023-03-14T14:57:31;1.13;;;0.70;;
22184;SDS011;11258;52.516;13.318;2023-03-14T15:00:04;1.20;;;0.60;;
22184;SDS011;11258;52.516;13.318;2023-03-14T15:02:44;0.88;;;0.68;;
22184;SDS011;11258;52.516;13.318;2023-03-14T15:05:16;1.13;;;0.70;;
22184;SDS011;11258;52.516;13.318;2023-03-14T15:07:43;0.80;;;0.70;;
22184;SDS011;11258;52.516;13.318;2023-03-14T15:10:10;1.73;;;0.63;;
22184;SDS011;11258;52.516;13.318;2023-03-14T15:12:46;0.88;;;0.70;;
22184;SDS011;11258;52.516;13.318;2023-03-14T15:15:14;3.15;;;0.80;;
22184;SDS011;11258;52.516;13.318;2023-03-14T15:17:41;4.13;;;1.25;;
22184;SDS011;11258;52.516;13.318;2023-03-14T15:20:11;4.97;;;0.90;;
22184;SDS011;11258;52.516;13.318;2023-03-14T15:22:42;4.03;;;0.80;;
22184;SDS011;11258;52.516;13.318;2023-03-14T15:25:08;1.00;;;0.50;;
22184;SDS011;11258;52.516;13.318;2023-03-14T15:27:35;1.20;;;0.57;;
22184;SDS011;11258;52.516;13.318;2023-03-14T15:30:01;0.77;;;0.53;;
22184;SDS011;11258;52.516;13.318;2023-03-14T15:32:27;0.70;;;0.33;;
22184;SDS011;11258;52.516;13.318;2023-03-14T15:34:56;0.40;;;0.40;;
22184;SDS011;11258;52.516;13.318;2023-03-14T15:37:22;1.37;;;0.47;;
22184;SDS011;11258;52.516;13.318;2023-03-14T15:39:48;1.20;;;0.50;;
22184;SDS011;11258;52.516;13.318;2023-03-14T15:42:13;0.90;;;0.60;;
22184;SDS011;11258;52.516;13.318;2023-03-14T15:44:39;0.77;;;0.40;;
22184;SDS011;11258;52.516;13.318;2023-03-14T15:47:05;3.97;;;1.00;;